Time;durP1;ratioP1;P1;durP2;ratioP2;P2;SDS_P1;SDS_P2;PMS_P1;PMS_P2;Temp;Humidity;BMP_temperature;BMP_pressure;BME280_temperature;BME280_humidity;BME280_pressure;Samples;Min_cycle;Max_cycle;Signal;HPM_P1;HPM_P2
2022/12/04 00:02:18;;;;;;;35.80;18.83;;;1.60;89.10;;;;;;5072654;28;20496;-72
2022/12/04 00:04:43;;;;;;;30.93;18.87;;;1.70;89.10;;;;;;5071845;28;20174;-74
2022/12/04 00:07:09;;;;;;;29.27;18.00;;;1.70;89.40;;;;;;5072187;28;20675;-72
2022/12/04 00:09:35;;;;;;;30.70;17.83;;;1.70;89.20;;;;;;5079361;28;20181;-72
2022/12/04 00:12:01;;;;;;;30.90;18.00;;;1.80;89.20;;;;;;5072546;28;20227;-72
2022/12/04 00:14:26;;;;;;;35.10;20.23;;;1.80;89.10;;;;;;5071698;28;20167;-72
2022/12/04 00:16:52;;;;;;;32.03;18.80;;;1.90;89.20;;;;;;5072565;28;20190;-73
2022/12/04 00:19:18;;;;;;;33.50;19.47;;;1.70;89.20;;;;;;5076578;28;20177;-73
2022/12/04 00:21:44;;;;;;;30.67;16.23;;;1.60;88.90;;;;;;5076598;28;20174;-72
2022/12/04 00:24:10;;;;;;;26.70;16.67;;;1.70;89.10;;;;;;5079556;28;20431;-73
2022/12/04 00:26:36;;;;;;;39.07;18.43;;;1.60;90.70;;;;;;5096165;28;20434;-71
2022/12/04 00:29:02;;;;;;;25.60;16.57;;;1.70;89.00;;;;;;5096757;28;20404;-71
2022/12/04 00:31:29;;;;;;;33.10;17.83;;;1.70;89.10;;;;;;5096714;28;20403;-71
2022/12/04 00:33:55;;;;;;;32.87;19.03;;;1.70;89.10;;;;;;5095924;28;20445;-71
2022/12/04 00:36:23;;;;;;;37.03;18.20;;;1.50;88.90;;;;;;5096227;28;20494;-71
2022/12/04 00:38:49;;;;;;;35.00;17.83;;;1.50;89.00;;;;;;5094830;28;20212;-72
2022/12/04 00:41:17;;;;;;;30.37;17.90;;;1.50;88.90;;;;;;5087452;28;20456;-72
2022/12/04 00:43:44;;;;;;;33.67;17.00;;;1.50;94.10;;;;;;5093512;28;20403;-73
2022/12/04 00:46:10;;;;;;;33.30;17.17;;;1.30;88.80;;;;;;5095016;28;20435;-72
2022/12/04 00:48:36;;;;;;;36.20;17.67;;;1.40;88.90;;;;;;5096370;28;20427;-71
2022/12/04 00:51:12;;;;;;;37.27;19.80;;;1.50;88.90;;;;;;5096363;28;20741;-72
2022/12/04 00:53:38;;;;;;;32.20;16.93;;;1.60;89.00;;;;;;5094239;28;20441;-76
2022/12/04 00:56:06;;;;;;;33.47;18.30;;;1.60;89.00;;;;;;5094784;28;20547;-73
2022/12/04 00:58:32;;;;;;;36.07;20.17;;;1.60;89.00;;;;;;5094875;28;20404;-72
2022/12/04 01:01:07;;;;;;;33.30;19.17;;;1.60;89.00;;;;;;5095521;28;20760;-72
2022/12/04 01:03:33;;;;;;;35.60;16.43;;;1.60;88.90;;;;;;5094521;28;20918;-73
2022/12/04 01:05:59;;;;;;;33.70;17.60;;;1.60;89.10;;;;;;5093472;28;20436;-71
2022/12/04 01:08:25;;;;;;;33.67;18.97;;;1.60;89.00;;;;;;5075710;28;20491;-72
2022/12/04 01:10:51;;;;;;;31.37;17.60;;;1.70;96.60;;;;;;5075697;28;20409;-73
2022/12/04 01:13:17;;;;;;;34.27;18.17;;;1.70;89.00;;;;;;5075777;28;20770;-71
2022/12/04 01:15:43;;;;;;;32.50;17.90;;;1.70;89.10;;;;;;5074069;28;20198;-72
2022/12/04 01:18:11;;;;;;;34.53;19.33;;;1.70;89.10;;;;;;5075495;28;20405;-74
2022/12/04 01:20:36;;;;;;;32.40;17.83;;;1.70;89.10;;;;;;5081072;28;20576;-71
2022/12/04 01:23:02;;;;;;;28.73;17.10;;;1.70;89.10;;;;;;5095705;28;20471;-73
2022/12/04 01:25:28;;;;;;;35.33;18.30;;;1.60;89.00;;;;;;5094860;28;20177;-73
2022/12/04 01:27:54;;;;;;;31.70;16.57;;;1.60;88.60;;;;;;5095713;28;20423;-71
2022/12/04 01:30:20;;;;;;;26.80;16.87;;;1.60;89.00;;;;;;5093734;28;20579;-72
2022/12/04 01:32:46;;;;;;;37.87;18.03;;;1.60;88.90;;;;;;5095410;28;20181;-73
2022/12/04 01:35:11;;;;;;;31.07;16.37;;;1.60;89.00;;;;;;5092821;28;20543;-73
2022/12/04 01:37:37;;;;;;;38.30;18.97;;;1.60;89.00;;;;;;5095106;28;20272;-71
2022/12/04 01:40:04;;;;;;;36.90;18.47;;;1.50;88.90;;;;;;5093522;28;20690;-74
2022/12/04 01:42:30;;;;;;;36.30;17.30;;;1.50;89.00;;;;;;5095310;28;20173;-73
2022/12/04 01:45:33;;;;;;;41.20;21.70;;;1.50;88.90;;;;;;5094287;28;20811;-72
2022/12/04 01:48:17;;;;;;;32.87;18.10;;;1.70;89.10;;;;;;5094641;28;20438;-73
2022/12/04 01:50:44;;;;;;;34.37;17.27;;;1.70;89.10;;;;;;5095306;28;20416;-73
2022/12/04 01:53:11;;;;;;;35.17;18.20;;;1.70;89.10;;;;;;5095232;28;20400;-73
2022/12/04 01:55:37;;;;;;;29.83;16.90;;;1.70;89.00;;;;;;5094025;28;20455;-72
2022/12/04 01:58:03;;;;;;;35.97;21.00;;;1.70;89.10;;;;;;5095161;28;20477;-73
2022/12/04 02:00:29;;;;;;;30.73;17.20;;;1.40;88.80;;;;;;5093006;28;20431;-71
2022/12/04 02:02:56;;;;;;;37.27;17.10;;;1.50;88.90;;;;;;5094868;28;20418;-72
2022/12/04 02:05:22;;;;;;;28.90;16.97;;;1.60;88.90;;;;;;5094092;28;20947;-74
2022/12/04 02:07:51;;;;;;;37.43;17.90;;;1.60;89.10;;;;;;5094848;28;20419;-72
2022/12/04 02:10:23;;;;;;;25.60;16.50;;;1.70;89.10;;;;;;5094666;28;20411;-71
2022/12/04 02:13:06;;;;;;;35.93;16.77;;;1.70;89.00;;;;;;5094713;28;20458;-73
2022/12/04 02:15:32;;;;;;;37.40;17.40;;;1.70;89.10;;;;;;5092493;28;20846;-73
2022/12/04 02:18:33;;;;;;;32.33;17.07;;;1.60;89.10;;;;;;5094064;28;20424;-73
2022/12/04 02:21:25;;;;;;;36.23;16.83;;;1.70;89.10;;;;;;5094562;28;20161;-72
2022/12/04 02:24:18;;;;;;;32.17;16.40;;;1.70;89.10;;;;;;5086516;28;20523;-73
2022/12/04 02:26:54;;;;;;;29.70;17.03;;;1.60;89.00;;;;;;5074195;28;20976;-72
2022/12/04 02:29:58;;;;;;;47.20;18.53;;;1.50;88.90;;;;;;5074281;28;20523;-72
2022/12/04 02:32:37;;;;;;;31.00;16.30;;;1.50;88.90;;;;;;5074377;28;20444;-71
2022/12/04 02:35:11;;;;;;;39.10;18.37;;;1.60;89.00;;;;;;5072809;28;20491;-72
2022/12/04 02:37:42;;;;;;;28.47;16.27;;;1.70;89.00;;;;;;5073619;28;20423;-71
2022/12/04 02:40:11;;;;;;;32.50;17.33;;;1.60;89.00;;;;;;5073926;28;20393;-71
2022/12/04 02:43:23;;;;;;;32.03;16.70;;;1.60;89.00;;;;;;5082445;28;20438;-71
2022/12/04 02:46:14;;;;;;;33.17;19.97;;;1.60;89.00;;;;;;5092177;28;20431;-72
2022/12/04 02:48:43;;;;;;;31.77;17.67;;;1.60;89.00;;;;;;5092811;28;20435;-71
2022/12/04 02:51:12;;;;;;;32.03;18.67;;;1.60;89.00;;;;;;5094034;28;20439;-72
2022/12/04 02:53:43;;;;;;;33.87;15.47;;;1.60;89.00;;;;;;5091897;28;20422;-75
2022/12/04 02:56:12;;;;;;;29.57;16.10;;;1.60;89.10;;;;;;5091935;28;20470;-73
2022/12/04 02:58:47;;;;;;;36.63;17.13;;;1.70;89.10;;;;;;5094187;28;20404;-72
2022/12/04 03:01:19;;;;;;;31.10;15.60;;;1.70;89.10;;;;;;5093820;28;20408;-72
2022/12/04 03:04:17;;;;;;;30.67;16.57;;;1.80;89.10;;;;;;5093037;28;20407;-72
2022/12/04 03:06:48;;;;;;;35.60;17.87;;;1.60;89.00;;;;;;5093243;28;20950;-72
2022/12/04 03:09:19;;;;;;;26.70;17.70;;;1.60;89.00;;;;;;5093881;28;20435;-73
2022/12/04 03:11:50;;;;;;;38.57;17.27;;;1.60;89.10;;;;;;5093578;28;20447;-73
2022/12/04 03:14:29;;;;;;;29.90;16.23;;;1.60;89.00;;;;;;5092406;28;20423;-71
2022/12/04 03:17:04;;;;;;;29.10;17.53;;;1.70;89.10;;;;;;5093521;28;20427;-72
2022/12/04 03:19:54;;;;;;;35.77;19.20;;;1.70;89.10;;;;;;5093449;28;20872;-72
2022/12/04 03:22:22;;;;;;;39.77;18.30;;;1.80;89.10;;;;;;5082405;28;20419;-73
2022/12/04 03:24:51;;;;;;;34.03;18.30;;;1.80;89.60;;;;;;5088470;28;20480;-71
2022/12/04 03:27:29;;;;;;;44.30;16.60;;;1.90;91.80;;;;;;5093350;28;20420;-72
2022/12/04 03:29:59;;;;;;;28.07;17.10;;;1.80;89.30;;;;;;5093155;28;20962;-74
2022/12/04 03:32:33;;;;;;;30.93;16.60;;;1.70;89.10;;;;;;5093127;28;20402;-71
2022/12/04 03:35:17;;;;;;;37.87;17.10;;;1.80;89.50;;;;;;5091137;28;20442;-73
2022/12/04 03:38:21;;;;;;;35.27;15.57;;;1.90;92.70;;;;;;5093119;28;20422;-72
2022/12/04 03:40:51;;;;;;;40.90;19.67;;;1.90;90.00;;;;;;5011237;28;20566;-72
2022/12/04 03:43:36;;;;;;;41.20;18.20;;;1.90;89.80;;;;;;4994032;28;21050;-72
2022/12/04 03:46:14;;;;;;;36.47;18.83;;;1.90;90.20;;;;;;5049677;28;20443;-72
2022/12/04 03:48:56;;;;;;;36.70;17.07;;;1.90;90.10;;;;;;5067992;28;20428;-72
2022/12/04 03:51:52;;;;;;;29.33;15.40;;;2.00;92.70;;;;;;5076213;28;20423;-72
2022/12/04 03:54:27;;;;;;;37.70;19.40;;;2.00;96.20;;;;;;5091356;28;20416;-72
2022/12/04 03:57:02;;;;;;;31.23;16.10;;;2.00;97.90;;;;;;5093079;28;20430;-71
2022/12/04 03:59:39;;;;;;;40.33;18.17;;;2.00;96.00;;;;;;5093066;28;20411;-72
2022/12/04 04:02:09;;;;;;;34.17;17.13;;;2.10;95.20;;;;;;5091690;28;20737;-72
2022/12/04 04:04:38;;;;;;;30.50;18.37;;;2.00;94.30;;;;;;5091937;28;20406;-74
2022/12/04 04:07:12;;;;;;;34.23;18.70;;;2.10;96.60;;;;;;5088725;28;20439;-71
2022/12/04 04:09:53;;;;;;;28.37;17.70;;;2.00;94.60;;;;;;5089825;28;20418;-73
2022/12/04 04:12:23;;;;;;;35.00;17.00;;;2.10;99.00;;;;;;5091526;28;20415;-73
2022/12/04 04:26:28;;;;;;;33.00;16.77;;;2.00;99.90;;;;;;5092817;28;20422;-72
2022/12/04 04:28:54;;;;;;;38.90;18.57;;;2.10;99.90;;;;;;5092841;28;20515;-71
2022/12/04 04:31:25;;;;;;;36.33;18.50;;;2.10;99.90;;;;;;5092917;28;20432;-72
2022/12/04 04:33:54;;;;;;;33.63;17.43;;;2.00;99.90;;;;;;5090153;28;20260;-72
2022/12/04 04:36:43;;;;;;;34.57;17.43;;;2.00;99.90;;;;;;5092546;28;21003;-72
2022/12/04 04:39:53;;;;;;;28.13;16.10;;;2.00;99.90;;;;;;5091447;28;20757;-71
2022/12/04 04:42:28;;;;;;;32.77;17.50;;;2.10;99.90;;;;;;5091978;28;20403;-72
2022/12/04 04:45:10;;;;;;;32.67;16.83;;;2.10;99.90;;;;;;5091748;28;20496;-71
2022/12/04 04:48:17;;;;;;;30.03;16.10;;;2.10;99.90;;;;;;5084470;28;21025;-73
2022/12/04 04:50:44;;;;;;;36.70;16.97;;;2.20;99.90;;;;;;5082277;28;20439;-72
2022/12/04 04:53:37;;;;;;;28.40;16.37;;;2.10;99.90;;;;;;5091703;28;20471;-71
2022/12/04 04:56:05;;;;;;;40.03;17.27;;;2.10;99.90;;;;;;5077800;28;20460;-72
2022/12/04 04:58:31;;;;;;;33.30;18.60;;;2.00;99.90;;;;;;5092517;28;20911;-72
2022/12/04 05:00:58;;;;;;;31.67;17.33;;;2.00;99.90;;;;;;5090629;28;20431;-71
2022/12/04 05:03:25;;;;;;;33.60;17.40;;;2.00;99.90;;;;;;5092325;28;20428;-72
2022/12/04 05:05:51;;;;;;;34.57;17.53;;;2.10;99.90;;;;;;5094677;28;20884;-72
2022/12/04 05:08:17;;;;;;;31.03;18.23;;;2.10;99.90;;;;;;5096051;28;20461;-72
2022/12/04 05:10:42;;;;;;;30.33;18.90;;;2.20;99.90;;;;;;5096169;28;20550;-72
2022/12/04 05:13:11;;;;;;;26.70;15.83;;;2.20;99.90;;;;;;5096096;28;20184;-72
2022/12/04 05:15:37;;;;;;;29.90;17.63;;;2.20;99.90;;;;;;5093763;28;20712;-72
2022/12/04 05:18:04;;;;;;;26.63;17.00;;;2.10;99.90;;;;;;5094529;28;20923;-72
2022/12/04 05:20:30;;;;;;;35.13;17.40;;;2.10;99.90;;;;;;5095841;28;20388;-71
2022/12/04 05:22:55;;;;;;;31.53;18.90;;;2.20;99.90;;;;;;5095871;28;20396;-72
2022/12/04 05:25:21;;;;;;;27.17;16.47;;;2.20;99.90;;;;;;5095466;28;20435;-72
2022/12/04 05:27:47;;;;;;;28.13;16.77;;;2.20;99.90;;;;;;5094040;28;20221;-72
2022/12/04 05:30:15;;;;;;;29.70;16.67;;;2.20;99.90;;;;;;5095682;28;20430;-72
2022/12/04 05:32:42;;;;;;;33.10;17.40;;;2.30;99.90;;;;;;5095671;28;20495;-72
2022/12/04 05:35:08;;;;;;;25.03;15.90;;;2.40;99.90;;;;;;5094167;28;20997;-72
2022/12/04 05:37:38;;;;;;;33.60;16.63;;;2.50;99.90;;;;;;5095535;28;20419;-71
2022/12/04 05:40:05;;;;;;;35.60;18.47;;;2.60;99.90;;;;;;5094492;28;20400;-72
2022/12/04 05:42:31;;;;;;;26.87;15.80;;;2.60;99.90;;;;;;5094037;28;20841;-73
2022/12/04 05:44:57;;;;;;;31.60;15.53;;;2.40;99.90;;;;;;5094503;28;20494;-72
2022/12/04 05:47:23;;;;;;;28.80;15.93;;;2.50;99.90;;;;;;5095425;28;20280;-72
2022/12/04 05:49:48;;;;;;;21.60;13.40;;;2.50;99.90;;;;;;5095302;28;20215;-71
2022/12/04 05:52:14;;;;;;;29.10;16.93;;;2.50;99.90;;;;;;5094512;28;20798;-72
2022/12/04 05:54:40;;;;;;;30.03;16.77;;;2.60;99.90;;;;;;5093077;28;20181;-72
2022/12/04 05:57:06;;;;;;;23.47;14.13;;;2.60;99.90;;;;;;5095071;28;20181;-71
2022/12/04 05:59:32;;;;;;;20.77;14.80;;;2.60;99.90;;;;;;5095055;28;20642;-72
2022/12/04 06:01:57;;;;;;;28.30;16.70;;;2.60;99.90;;;;;;5095194;28;20470;-71
2022/12/04 06:04:23;;;;;;;25.57;13.90;;;2.60;99.90;;;;;;5093167;28;20867;-71
2022/12/04 06:06:49;;;;;;;24.00;15.43;;;2.60;99.90;;;;;;5094832;28;20185;-72
2022/12/04 06:09:15;;;;;;;25.30;15.60;;;2.70;99.90;;;;;;5094029;28;20638;-72
2022/12/04 06:11:41;;;;;;;19.77;14.40;;;2.70;99.90;;;;;;5094404;28;20170;-72
2022/12/04 06:14:11;;;;;;;27.30;16.53;;;2.70;99.90;;;;;;5093957;28;20235;-72
2022/12/04 06:16:40;;;;;;;22.20;13.27;;;2.70;99.90;;;;;;5094476;28;20479;-72
2022/12/04 06:19:08;;;;;;;26.13;14.70;;;2.70;99.90;;;;;;5094622;28;20954;-71
2022/12/04 06:21:37;;;;;;;20.57;15.33;;;2.80;99.90;;;;;;5093416;28;20431;-72
2022/12/04 06:24:03;;;;;;;26.23;17.00;;;2.70;99.90;;;;;;5093807;28;20407;-72
2022/12/04 06:26:29;;;;;;;24.03;13.20;;;2.80;99.90;;;;;;5094587;28;20916;-71
2022/12/04 06:28:56;;;;;;;29.07;16.20;;;2.80;99.90;;;;;;5094045;28;20452;-73
2022/12/04 06:31:24;;;;;;;27.73;16.03;;;2.60;99.90;;;;;;5094493;28;20223;-73
2022/12/04 06:33:51;;;;;;;23.27;13.80;;;2.50;99.90;;;;;;5093683;28;20392;-72
2022/12/04 06:36:19;;;;;;;26.23;14.90;;;2.40;99.90;;;;;;5093063;28;20546;-72
2022/12/04 06:38:46;;;;;;;24.47;15.20;;;2.50;99.90;;;;;;5094383;28;20490;-73
2022/12/04 06:41:14;;;;;;;25.63;15.63;;;2.50;99.90;;;;;;5094465;28;20407;-72
2022/12/04 06:43:40;;;;;;;20.93;14.13;;;2.50;99.90;;;;;;5093358;28;20904;-69
2022/12/04 06:46:12;;;;;;;22.53;15.10;;;2.50;99.90;;;;;;5093975;28;20419;-70
2022/12/04 06:48:38;;;;;;;25.50;15.30;;;2.50;99.90;;;;;;5091918;28;20474;-68
2022/12/04 06:51:12;;;;;;;23.37;15.27;;;2.50;99.90;;;;;;5089445;28;20466;-72
2022/12/04 06:53:39;;;;;;;26.20;16.00;;;2.40;99.90;;;;;;5093102;28;20186;-73
2022/12/04 06:56:09;;;;;;;28.33;14.47;;;2.50;99.90;;;;;;5093954;28;20459;-72
2022/12/04 06:58:35;;;;;;;30.77;16.73;;;2.60;99.90;;;;;;5094143;28;20400;-73
2022/12/04 07:01:10;;;;;;;30.03;15.60;;;2.70;99.90;;;;;;5093972;28;20818;-71
2022/12/04 07:03:37;;;;;;;27.10;16.57;;;2.80;99.90;;;;;;5082517;28;20793;-75
2022/12/04 07:06:33;;;;;;;32.27;18.87;;;2.80;99.90;;;;;;5076315;28;20486;-71
2022/12/04 07:09:27;;;;;;;30.90;16.90;;;2.80;99.90;;;;;;5080993;28;20436;-71
2022/12/04 07:11:53;;;;;;;34.90;17.20;;;2.80;99.90;;;;;;5087660;28;20431;-71
2022/12/04 07:14:19;;;;;;;26.63;16.17;;;2.80;99.90;;;;;;5092818;28;20399;-71
2022/12/04 07:16:45;;;;;;;27.47;17.90;;;2.70;99.90;;;;;;5093626;28;20530;-71
2022/12/04 07:19:13;;;;;;;32.60;18.50;;;2.80;99.90;;;;;;5093697;28;20627;-73
2022/12/04 07:21:39;;;;;;;33.93;19.60;;;2.80;99.90;;;;;;5093047;28;20168;-71
2022/12/04 07:24:05;;;;;;;31.10;19.83;;;2.90;99.90;;;;;;5089721;28;20427;-72
2022/12/04 07:26:30;;;;;;;33.67;19.03;;;2.80;99.90;;;;;;5093540;28;20424;-71
2022/12/04 07:28:58;;;;;;;37.10;19.17;;;2.80;99.90;;;;;;5092914;28;20422;-71
2022/12/04 07:31:25;;;;;;;31.33;19.50;;;2.80;99.90;;;;;;5093217;28;20681;-73
2022/12/04 07:33:53;;;;;;;34.23;19.80;;;2.70;99.90;;;;;;5092710;28;20395;-72
2022/12/04 07:36:20;;;;;;;40.83;21.00;;;2.80;99.90;;;;;;5093062;28;20451;-73
2022/12/04 07:38:46;;;;;;;40.60;21.80;;;2.90;99.90;;;;;;5079386;28;20443;-72
2022/12/04 07:41:13;;;;;;;37.40;19.97;;;2.90;99.90;;;;;;5073224;28;20400;-72
2022/12/04 07:43:39;;;;;;;37.00;20.50;;;2.90;99.90;;;;;;5090316;28;20975;-73
2022/12/04 07:46:13;;;;;;;28.43;18.27;;;3.00;99.90;;;;;;5091851;28;20954;-72
2022/12/04 07:48:39;;;;;;;35.33;19.50;;;3.00;99.90;;;;;;5093289;28;20427;-72
2022/12/04 07:51:08;;;;;;;31.73;20.77;;;3.10;99.90;;;;;;5090591;28;20506;-71
2022/12/04 07:53:34;;;;;;;33.60;20.60;;;3.20;99.90;;;;;;5092849;28;20760;-73
2022/12/04 07:56:00;;;;;;;31.83;17.40;;;3.20;99.90;;;;;;5091844;28;20485;-72
2022/12/04 07:58:26;;;;;;;33.20;19.60;;;3.30;99.90;;;;;;5093133;28;20400;-72
2022/12/04 08:00:52;;;;;;;32.10;20.60;;;3.40;99.90;;;;;;5091132;28;20757;-72
2022/12/04 08:03:17;;;;;;;32.30;18.80;;;3.50;99.90;;;;;;5074813;28;20638;-72
2022/12/04 08:05:43;;;;;;;31.27;19.13;;;3.50;99.90;;;;;;5071943;28;20171;-73
2022/12/04 08:08:09;;;;;;;34.17;19.40;;;3.60;99.90;;;;;;5072955;28;20174;-71
2022/12/04 08:10:35;;;;;;;34.47;18.67;;;3.60;99.90;;;;;;5084850;28;20707;-71
2022/12/04 08:13:00;;;;;;;34.63;18.27;;;3.70;99.90;;;;;;5092394;28;20179;-72
2022/12/04 08:15:26;;;;;;;26.83;16.57;;;3.70;99.90;;;;;;5092052;28;20199;-73
2022/12/04 08:17:52;;;;;;;30.60;18.40;;;3.70;99.90;;;;;;5091880;28;20254;-72
2022/12/04 08:20:17;;;;;;;25.47;17.70;;;3.70;99.90;;;;;;5091952;28;20659;-72
2022/12/04 08:22:43;;;;;;;36.10;20.57;;;3.80;99.90;;;;;;5093008;28;20193;-72
2022/12/04 08:25:09;;;;;;;30.27;17.37;;;3.80;99.90;;;;;;5090801;28;20576;-71
2022/12/04 08:27:35;;;;;;;32.67;18.30;;;3.80;99.90;;;;;;5092840;28;20219;-72
2022/12/04 08:30:00;;;;;;;34.53;18.40;;;3.80;99.90;;;;;;5092336;28;20186;-73
2022/12/04 08:32:26;;;;;;;32.33;19.53;;;3.70;99.90;;;;;;5092704;28;20877;-72
2022/12/04 08:34:52;;;;;;;29.50;18.17;;;3.70;99.90;;;;;;5090562;28;20171;-72
2022/12/04 08:37:18;;;;;;;30.80;19.10;;;3.80;99.90;;;;;;5092884;28;20200;-71
2022/12/04 08:39:43;;;;;;;36.43;18.77;;;3.70;99.90;;;;;;5078501;28;20187;-72
2022/12/04 08:42:09;;;;;;;35.93;21.20;;;3.80;99.90;;;;;;5076286;28;20175;-71
2022/12/04 08:44:35;;;;;;;36.43;20.10;;;3.80;99.90;;;;;;5075570;28;20171;-72
2022/12/04 08:47:00;;;;;;;32.67;18.47;;;3.80;99.90;;;;;;5075603;28;20203;-71
2022/12/04 08:49:26;;;;;;;35.47;18.90;;;3.90;99.90;;;;;;5074851;28;20190;-72
2022/12/04 08:51:52;;;;;;;39.87;19.47;;;3.80;99.90;;;;;;5093183;28;20201;-71
2022/12/04 08:54:17;;;;;;;39.33;20.17;;;3.80;99.90;;;;;;5095531;28;20565;-72
2022/12/04 08:56:43;;;;;;;29.10;18.73;;;3.80;99.90;;;;;;5096310;28;20260;-72
2022/12/04 08:59:11;;;;;;;37.40;19.73;;;3.80;99.90;;;;;;5096428;28;20168;-71
2022/12/04 09:01:37;;;;;;;32.13;18.90;;;3.70;99.90;;;;;;5096322;28;20167;-73
2022/12/04 09:04:03;;;;;;;39.27;19.50;;;3.80;99.90;;;;;;5093999;28;20435;-72
2022/12/04 09:06:29;;;;;;;35.03;19.77;;;3.80;99.90;;;;;;5092507;28;20463;-71
2022/12/04 09:08:55;;;;;;;36.37;20.30;;;3.90;99.90;;;;;;5096135;28;20403;-71
2022/12/04 09:11:24;;;;;;;36.30;21.97;;;4.00;99.90;;;;;;5096270;28;20176;-71
2022/12/04 09:13:50;;;;;;;36.43;21.00;;;4.10;99.90;;;;;;5095333;28;20533;-71
2022/12/04 09:16:20;;;;;;;36.70;18.90;;;4.00;99.90;;;;;;5095781;28;20552;-72
2022/12/04 09:18:46;;;;;;;27.57;18.13;;;4.00;99.90;;;;;;5087203;28;20439;-71
2022/12/04 09:21:14;;;;;;;33.23;19.80;;;4.10;99.90;;;;;;5092346;28;20505;-73
2022/12/04 09:23:41;;;;;;;40.93;20.67;;;4.20;99.90;;;;;;5094495;28;20827;-71
2022/12/04 09:26:23;;;;;;;29.00;20.87;;;4.30;99.90;;;;;;5095717;28;20435;-71
2022/12/04 09:28:50;;;;;;;36.03;19.87;;;4.20;99.90;;;;;;5095883;28;20950;-71
2022/12/04 09:31:17;;;;;;;30.33;20.47;;;4.20;99.90;;;;;;5094099;28;20513;-71
2022/12/04 09:33:43;;;;;;;34.83;20.03;;;4.10;99.90;;;;;;5093864;28;20948;-71
2022/12/04 09:36:14;;;;;;;29.93;18.13;;;4.10;99.90;;;;;;5095537;28;20551;-72
2022/12/04 09:38:42;;;;;;;30.10;18.13;;;4.10;99.90;;;;;;5095664;28;20488;-71
2022/12/04 09:41:26;;;;;;;37.27;18.53;;;4.30;99.90;;;;;;5094228;28;20532;-73
2022/12/04 09:43:59;;;;;;;31.43;17.53;;;4.30;99.90;;;;;;5094274;28;20393;-72
2022/12/04 09:46:36;;;;;;;33.73;20.23;;;4.40;99.90;;;;;;5082215;28;20467;-71
2022/12/04 09:49:16;;;;;;;31.20;18.50;;;4.40;99.90;;;;;;5095374;28;20459;-72
2022/12/04 09:51:42;;;;;;;33.53;20.00;;;4.40;99.90;;;;;;5092792;28;20927;-71
2022/12/04 09:54:21;;;;;;;32.87;19.87;;;4.40;99.90;;;;;;5094518;28;20455;-72
2022/12/04 09:56:57;;;;;;;31.97;17.60;;;4.40;99.90;;;;;;5095000;28;20455;-71
2022/12/04 09:59:29;;;;;;;32.93;20.20;;;4.50;99.90;;;;;;5094796;28;21158;-71
2022/12/04 10:02:24;;;;;;;29.20;17.93;;;4.60;99.90;;;;;;5095381;28;20397;-71
2022/12/04 10:04:50;;;;;;;33.07;19.57;;;4.60;99.90;;;;;;5080890;28;20422;-71
2022/12/04 10:07:24;;;;;;;26.60;15.73;;;4.60;99.90;;;;;;5091036;28;20448;-71
2022/12/04 10:10:07;;;;;;;28.97;17.40;;;4.60;99.90;;;;;;5074894;28;20163;-71
2022/12/04 10:12:47;;;;;;;34.20;20.57;;;4.70;99.90;;;;;;5075761;28;20440;-71
2022/12/04 10:15:16;;;;;;;25.93;16.17;;;4.80;99.90;;;;;;5084184;28;20450;-71
2022/12/04 10:17:53;;;;;;;29.03;17.03;;;4.80;99.90;;;;;;5073610;28;20487;-72
2022/12/04 10:20:43;;;;;;;25.37;16.63;;;4.70;99.90;;;;;;5075937;28;20430;-72
2022/12/04 10:23:20;;;;;;;26.53;17.00;;;4.70;99.90;;;;;;5094764;28;20407;-71
2022/12/04 10:25:49;;;;;;;30.17;17.57;;;4.80;99.90;;;;;;5083009;28;20425;-71
2022/12/04 10:28:15;;;;;;;29.17;16.27;;;4.90;99.90;;;;;;5075680;28;20404;-72
2022/12/04 10:30:42;;;;;;;27.97;17.67;;;4.90;99.90;;;;;;5094588;28;20406;-73
2022/12/04 10:33:29;;;;;;;23.10;15.40;;;4.90;99.90;;;;;;5094057;28;20240;-72
2022/12/04 10:35:56;;;;;;;31.43;17.63;;;4.90;99.90;;;;;;5072497;28;20473;-71
2022/12/04 10:38:34;;;;;;;28.27;17.80;;;4.90;99.90;;;;;;5086914;28;20434;-72
2022/12/04 10:41:08;;;;;;;27.17;15.83;;;5.00;99.90;;;;;;5074121;28;20400;-72
2022/12/04 10:43:45;;;;;;;26.03;16.40;;;5.10;99.90;;;;;;5089365;28;20950;-72
2022/12/04 10:46:28;;;;;;;27.13;16.53;;;5.10;99.90;;;;;;5093053;28;20440;-72
2022/12/04 10:49:02;;;;;;;23.50;16.20;;;5.00;99.90;;;;;;5085486;28;20462;-71
2022/12/04 10:51:41;;;;;;;25.20;15.07;;;4.90;99.90;;;;;;5073604;28;20415;-72
2022/12/04 10:54:15;;;;;;;23.93;14.77;;;4.80;99.90;;;;;;5090664;28;20425;-71
2022/12/04 10:56:59;;;;;;;22.60;16.30;;;4.80;99.90;;;;;;5091733;28;20461;-72
2022/12/04 10:59:26;;;;;;;27.50;18.67;;;4.80;99.90;;;;;;5073763;28;20531;-71
2022/12/04 11:02:13;;;;;;;25.77;15.57;;;4.80;99.90;;;;;;5075038;28;20450;-70
2022/12/04 11:04:40;;;;;;;29.33;16.87;;;4.70;99.90;;;;;;5080286;28;20463;-73
2022/12/04 11:07:17;;;;;;;27.20;16.60;;;4.70;99.90;;;;;;5072997;28;20441;-71
2022/12/04 11:09:52;;;;;;;22.07;16.43;;;4.60;99.90;;;;;;5072434;28;20941;-72
2022/12/04 11:12:20;;;;;;;24.10;16.47;;;4.60;99.90;;;;;;5093400;28;20917;-72
2022/12/04 11:14:46;;;;;;;29.73;17.40;;;4.60;99.90;;;;;;5092869;28;20467;-71
2022/12/04 11:17:16;;;;;;;24.33;16.37;;;4.60;99.90;;;;;;5091959;28;20463;-73
2022/12/04 11:19:41;;;;;;;28.33;18.70;;;4.60;99.90;;;;;;5093833;28;20164;-72
2022/12/04 11:22:14;;;;;;;22.57;15.30;;;4.60;99.90;;;;;;5074706;28;20751;-72
2022/12/04 11:24:41;;;;;;;27.47;17.23;;;4.60;99.90;;;;;;5071893;28;20524;-73
2022/12/04 11:27:18;;;;;;;29.40;16.10;;;4.60;99.90;;;;;;5091192;28;20484;-71
2022/12/04 11:29:46;;;;;;;26.20;16.40;;;4.60;99.90;;;;;;5092133;28;20470;-72
2022/12/04 11:32:33;;;;;;;30.40;16.43;;;4.60;99.90;;;;;;5074450;28;20933;-72
2022/12/04 11:35:11;;;;;;;22.23;15.07;;;4.60;99.90;;;;;;5072340;28;20407;-72
2022/12/04 11:37:37;;;;;;;24.80;17.60;;;4.60;99.90;;;;;;5073162;28;20436;-72
2022/12/04 11:40:13;;;;;;;28.47;17.23;;;4.50;99.90;;;;;;5072733;28;20407;-73
2022/12/04 11:42:39;;;;;;;25.03;15.23;;;4.60;99.90;;;;;;5084607;28;20791;-72
2022/12/04 11:45:22;;;;;;;26.07;16.70;;;4.60;99.90;;;;;;5092172;28;20877;-73
2022/12/04 11:47:57;;;;;;;29.60;17.13;;;4.70;99.90;;;;;;5073127;28;20441;-72
2022/12/04 11:50:23;;;;;;;22.93;15.60;;;4.60;99.90;;;;;;5077403;28;20439;-72
2022/12/04 11:53:06;;;;;;;25.07;16.50;;;4.60;99.90;;;;;;5073066;28;20455;-72
2022/12/04 11:55:51;;;;;;;32.57;18.53;;;4.70;99.90;;;;;;5077843;28;20530;-72
2022/12/04 11:58:22;;;;;;;34.10;17.57;;;4.70;99.90;;;;;;5093262;28;20404;-72
2022/12/04 12:01:29;;;;;;;27.33;18.03;;;4.70;99.90;;;;;;5083518;28;20910;-72
2022/12/04 12:04:06;;;;;;;32.60;19.20;;;4.70;99.90;;;;;;5070870;28;20424;-73
2022/12/04 12:06:34;;;;;;;28.03;18.17;;;4.70;99.90;;;;;;5074721;28;20477;-73
2022/12/04 12:09:03;;;;;;;29.00;17.03;;;4.80;99.90;;;;;;5072602;28;20834;-72
2022/12/04 12:12:10;;;;;;;32.80;18.83;;;4.80;99.90;;;;;;5088854;28;20958;-72
2022/12/04 12:14:55;;;;;;;28.90;19.17;;;4.80;99.90;;;;;;5083436;28;20468;-74
2022/12/04 12:17:45;;;;;;;29.47;19.07;;;4.70;99.90;;;;;;5076868;28;20434;-73
2022/12/04 12:20:31;;;;;;;29.60;18.87;;;4.80;99.90;;;;;;5084034;28;20417;-72
2022/12/04 12:23:05;;;;;;;35.97;19.33;;;4.80;99.90;;;;;;5076238;28;20577;-73
2022/12/04 12:25:52;;;;;;;34.07;17.53;;;4.90;99.90;;;;;;5086101;28;20424;-73
2022/12/04 12:28:30;;;;;;;31.10;20.27;;;4.90;99.90;;;;;;5097097;28;20865;-72
2022/12/04 12:30:56;;;;;;;30.70;17.70;;;4.90;99.90;;;;;;5083298;28;20414;-72
2022/12/04 12:33:30;;;;;;;33.60;18.27;;;4.80;99.90;;;;;;5075392;28;20461;-72
2022/12/04 12:36:10;;;;;;;30.07;17.53;;;4.80;99.90;;;;;;5075814;28;20242;-72
2022/12/04 12:39:10;;;;;;;34.90;18.87;;;4.90;99.90;;;;;;5075273;28;20411;-73
2022/12/04 12:41:48;;;;;;;33.23;18.00;;;4.90;99.90;;;;;;5093004;28;20912;-72
2022/12/04 12:44:20;;;;;;;34.13;19.23;;;5.00;99.90;;;;;;5094790;28;20428;-72
2022/12/04 12:46:55;;;;;;;34.13;19.83;;;5.10;99.90;;;;;;5076380;28;20434;-72
2022/12/04 12:49:49;;;;;;;27.40;17.30;;;5.10;99.90;;;;;;5076244;28;20784;-72
2022/12/04 12:52:30;;;;;;;27.63;19.70;;;5.20;99.90;;;;;;5075819;28;20444;-72
2022/12/04 12:55:16;;;;;;;31.47;17.20;;;5.20;99.90;;;;;;5077420;28;20404;-72
2022/12/04 12:57:46;;;;;;;28.10;16.63;;;5.10;99.90;;;;;;5095340;28;20945;-72
2022/12/04 13:00:12;;;;;;;27.33;18.60;;;5.10;99.90;;;;;;5092112;28;20414;-72
2022/12/04 13:03:05;;;;;;;25.90;16.30;;;5.00;99.90;;;;;;5075999;28;20400;-73
2022/12/04 13:05:43;;;;;;;26.60;16.40;;;4.90;99.90;;;;;;5078366;28;20419;-72
2022/12/04 13:08:15;;;;;;;25.23;17.27;;;5.00;99.90;;;;;;5093616;28;20415;-70
2022/12/04 13:11:02;;;;;;;27.97;17.70;;;4.90;99.90;;;;;;5089058;28;20503;-72
2022/12/04 13:13:35;;;;;;;29.47;17.27;;;4.90;99.90;;;;;;5075603;28;20397;-72